createdAt,value
2022-09-23T00:02:17.504Z,97304.75
2022-09-23T00:04:46.819Z,97304.97
2022-09-23T00:07:15.114Z,97301.97
2022-09-23T00:09:43.712Z,97302.25
2022-09-23T00:12:13.678Z,97303.88
2022-09-23T00:14:41.922Z,97304.75
2022-09-23T00:17:10.279Z,97300.13
2022-09-23T00:19:40.412Z,97302.09
2022-09-23T00:22:08.970Z,97301.66
2022-09-23T00:24:37.531Z,97298.75
2022-09-23T00:27:06.497Z,97292.16
2022-09-23T00:29:37.009Z,97290.81
2022-09-23T00:32:06.168Z,97291.34
2022-09-23T00:34:34.518Z,97294.00
2022-09-23T00:37:02.755Z,97288.88
2022-09-23T00:39:31.374Z,97291.88
2022-09-23T00:41:59.703Z,97288.00
2022-09-23T00:44:49.138Z,97290.19
2022-09-23T00:47:25.749Z,97280.50
2022-09-23T00:50:03.696Z,97281.66
2022-09-23T00:52:33.260Z,97281.72
2022-09-23T00:55:06.511Z,97286.84
2022-09-23T00:57:37.227Z,97274.13
2022-09-23T01:00:10.319Z,97270.66
2022-09-23T01:02:39.388Z,97266.00
2022-09-23T01:05:09.987Z,97270.91
2022-09-23T01:07:38.342Z,97265.22
2022-09-23T01:10:10.082Z,97270.91
2022-09-23T01:12:59.915Z,97265.22
2022-09-23T01:15:40.875Z,97260.72
2022-09-23T01:18:24.076Z,97257.47
2022-09-23T01:21:19.715Z,97252.34
2022-09-23T01:24:29.972Z,97256.47
2022-09-23T01:27:16.001Z,97258.06
2022-09-23T01:30:41.539Z,97252.16
2022-09-23T01:33:19.756Z,97249.47
2022-09-23T01:36:03.327Z,97248.94
2022-09-23T01:38:40.446Z,97254.31
2022-09-23T01:41:45.370Z,97254.31
2022-09-23T01:44:22.938Z,97255.91
2022-09-23T01:46:57.742Z,97252.16
2022-09-23T01:49:33.772Z,97245.16
2022-09-23T01:52:15.438Z,97245.50
2022-09-23T01:54:54.107Z,97243.94
2022-09-23T01:57:31.865Z,97238.19
2022-09-23T02:00:07.978Z,97240.03
2022-09-23T02:02:49.930Z,97244.44
2022-09-23T02:05:26.049Z,97235.00
2022-09-23T02:08:00.537Z,97238.22
2022-09-23T02:10:37.481Z,97237.16
2022-09-23T02:13:15.633Z,97234.47
2022-09-23T02:15:51.742Z,97231.44
2022-09-23T02:18:27.342Z,97231.22
2022-09-23T02:21:01.615Z,97231.47
2022-09-23T02:23:40.807Z,97226.88
2022-09-23T02:26:20.961Z,97227.91
2022-09-23T02:29:07.902Z,97233.31
2022-09-23T02:31:45.463Z,97232.28
2022-09-23T02:34:26.756Z,97233.13
2022-09-23T02:37:11.023Z,97236.88
2022-09-23T02:39:53.775Z,97231.50
2022-09-23T02:42:26.443Z,97235.38
2022-09-23T02:44:55.061Z,97229.69
2022-09-23T02:47:29.066Z,97227.53
2022-09-23T02:49:58.647Z,97227.56
2022-09-23T02:52:28.109Z,97225.44
2022-09-23T02:54:57.103Z,97219.25
2022-09-23T02:57:25.394Z,97218.72
2022-09-23T02:59:53.938Z,97212.75
2022-09-23T03:02:56.024Z,97210.53
2022-09-23T03:05:32.620Z,97219.41
2022-09-23T03:08:25.732Z,97213.16
2022-09-23T03:11:04.424Z,97210.50
2022-09-23T03:13:43.640Z,97206.47
2022-09-23T03:16:25.687Z,97209.19
2022-09-23T03:19:07.989Z,97204.03
2022-09-23T03:21:45.169Z,97210.59
2022-09-23T03:24:16.533Z,97210.34
2022-09-23T03:26:48.526Z,97196.81
2022-09-23T03:29:19.889Z,97191.16
2022-09-23T03:31:48.727Z,97195.78
2022-09-23T03:34:23.919Z,97196.59
2022-09-23T03:37:01.566Z,97193.66
2022-09-23T03:39:40.832Z,97194.72
2022-09-23T03:42:16.928Z,97199.41
2022-09-23T03:44:47.070Z,97198.66
2022-09-23T03:47:17.283Z,97197.84
2022-09-23T03:49:49.230Z,97199.22
2022-09-23T03:52:22.093Z,97191.38
2022-09-23T03:54:52.120Z,97200.63
2022-09-23T03:57:23.079Z,97194.41
2022-09-23T03:59:52.273Z,97188.22
2022-09-23T04:02:22.051Z,97190.97
2022-09-23T04:04:50.536Z,97192.25
2022-09-23T04:07:20.239Z,97190.09
2022-09-23T04:09:48.396Z,97189.00
2022-09-23T04:12:18.318Z,97189.03
2022-09-23T04:14:46.925Z,97191.47
2022-09-23T04:17:15.421Z,97185.00
2022-09-23T04:19:43.680Z,97189.34
2022-09-23T04:22:12.243Z,97185.25
2022-09-23T04:24:41.889Z,97186.59
2022-09-23T04:27:10.063Z,97191.03
2022-09-23T04:29:38.338Z,97188.91
2022-09-23T04:32:06.708Z,97193.28
2022-09-23T04:34:34.919Z,97192.78
2022-09-23T04:37:03.505Z,97193.38
2022-09-23T04:39:31.772Z,97195.53
2022-09-23T04:42:01.353Z,97192.28
2022-09-23T04:44:29.560Z,97203.69
2022-09-23T04:46:58.470Z,97202.63
2022-09-23T04:49:26.931Z,97201.06
2022-09-23T04:51:55.674Z,97194.28
2022-09-23T04:54:24.225Z,97200.50
2022-09-23T04:56:52.477Z,97192.97
2022-09-23T04:59:22.024Z,97192.38
2022-09-23T05:01:51.977Z,97200.50
2022-09-23T05:04:20.233Z,97197.81
2022-09-23T05:06:49.229Z,97196.16
2022-09-23T05:09:18.948Z,97194.53
2022-09-23T05:11:47.333Z,97191.56
2022-09-23T05:14:15.738Z,97200.19
2022-09-23T05:16:45.296Z,97193.91
2022-09-23T05:19:13.821Z,97190.91
2022-09-23T05:21:42.517Z,97194.31
2022-09-23T05:24:10.779Z,97185.88
2022-09-23T05:26:39.307Z,97191.78
2022-09-23T05:29:08.072Z,97184.19
2022-09-23T05:31:37.396Z,97191.75
2022-09-23T05:34:07.606Z,97193.66
2022-09-23T05:36:39.180Z,97191.13
2022-09-23T05:39:09.171Z,97196.50
2022-09-23T05:41:38.257Z,97190.47
2022-09-23T05:44:06.666Z,97193.97
2022-09-23T05:46:35.243Z,97185.31
2022-09-23T05:49:05.611Z,97186.06
2022-09-23T05:51:36.123Z,97191.38
2022-09-23T05:54:05.652Z,97191.16
2022-09-23T05:56:37.211Z,97193.22
2022-09-23T05:59:07.220Z,97201.09
2022-09-23T06:01:38.571Z,97199.69
2022-09-23T06:04:09.241Z,97200.06
2022-09-23T06:06:42.611Z,97188.63
2022-09-23T06:09:14.955Z,97193.53
2022-09-23T06:11:43.995Z,97200.28
2022-09-23T06:14:15.028Z,97209.53
2022-09-23T06:16:44.149Z,97203.72
2022-09-23T06:19:12.477Z,97208.59
2022-09-23T06:21:42.453Z,97202.13
2022-09-23T06:24:15.581Z,97207.81
2022-09-23T06:26:45.471Z,97204.47
2022-09-23T06:29:14.480Z,97202.84
2022-09-23T06:31:43.465Z,97196.44
2022-09-23T06:34:14.863Z,97198.66
2022-09-23T06:36:46.519Z,97193.78
2022-09-23T06:39:16.052Z,97197.66
2022-09-23T06:41:45.787Z,97193.25
2022-09-23T06:44:14.613Z,97202.00
2022-09-23T06:46:44.135Z,97191.50
2022-09-23T06:49:13.193Z,97196.81
2022-09-23T06:51:42.197Z,97197.78
2022-09-23T06:54:12.031Z,97193.38
2022-09-23T06:56:40.615Z,97203.81
2022-09-23T06:59:13.047Z,97194.41
2022-09-23T07:01:41.596Z,97199.13
2022-09-23T07:04:10.689Z,97196.81
2022-09-23T07:06:38.970Z,97200.50
2022-09-23T07:09:09.712Z,97204.28
2022-09-23T07:11:40.925Z,97197.31
2022-09-23T07:14:09.364Z,97210.56
2022-09-23T07:16:37.573Z,97203.88
2022-09-23T07:19:05.912Z,97204.00
2022-09-23T07:21:34.204Z,97212.59
2022-09-23T07:24:02.882Z,97210.63
2022-09-23T07:26:34.078Z,97211.91
2022-09-23T07:29:05.071Z,97216.69
2022-09-23T07:31:39.719Z,97223.00
2022-09-23T07:34:09.982Z,97216.53
2022-09-23T07:36:40.720Z,97219.38
2022-09-23T07:39:11.132Z,97214.16
2022-09-23T07:41:41.538Z,97213.66
2022-09-23T07:44:12.658Z,97215.19
2022-09-23T07:46:41.147Z,97219.84
2022-09-23T07:49:10.588Z,97219.28
2022-09-23T07:51:41.960Z,97220.91
2022-09-23T07:54:14.755Z,97224.44
2022-09-23T07:56:44.677Z,97219.53
2022-09-23T07:59:18.282Z,97215.31
2022-09-23T08:01:50.605Z,97219.97
2022-09-23T08:04:22.784Z,97213.47
2022-09-23T08:06:54.349Z,97206.19
2022-09-23T08:09:26.209Z,97208.66
2022-09-23T08:11:55.290Z,97206.25
2022-09-23T08:14:25.012Z,97210.50
2022-09-23T08:16:54.106Z,97214.88
2022-09-23T08:19:22.409Z,97207.41
2022-09-23T08:21:52.206Z,97214.66
2022-09-23T08:24:24.263Z,97219.25
2022-09-23T08:26:54.304Z,97213.88
2022-09-23T08:29:26.327Z,97212.84
2022-09-23T08:31:55.548Z,97210.19
2022-09-23T08:34:27.798Z,97218.00
2022-09-23T08:36:55.975Z,97206.41
2022-09-23T08:39:24.271Z,97204.59
2022-09-23T08:42:13.382Z,97213.84
2022-09-23T08:44:51.844Z,97216.47
2022-09-23T08:47:25.909Z,97200.94
2022-09-23T08:50:03.915Z,97204.66
2022-09-23T08:52:49.134Z,97194.94
2022-09-23T08:55:19.532Z,97206.47
2022-09-23T08:58:24.632Z,97206.94
2022-09-23T09:01:11.289Z,97198.72
2022-09-23T09:03:48.612Z,97201.53
2022-09-23T09:06:24.194Z,97209.44
2022-09-23T09:09:02.073Z,97200.13
2022-09-23T09:11:36.733Z,97202.28
2022-09-23T09:14:23.587Z,97201.78
2022-09-23T09:17:01.650Z,97186.34
2022-09-23T09:19:56.433Z,97192.47
2022-09-23T09:22:43.213Z,97185.13
2022-09-23T09:25:34.092Z,97183.63
2022-09-23T09:28:05.140Z,97186.13
2022-09-23T09:30:36.298Z,97179.84
2022-09-23T09:33:15.822Z,97177.53
2022-09-23T09:36:08.846Z,97176.75
2022-09-23T09:38:37.581Z,97175.53
2022-09-23T09:41:17.045Z,97171.81
2022-09-23T09:43:52.377Z,97164.03
2022-09-23T09:46:55.408Z,97165.22
2022-09-23T09:49:40.496Z,97161.66
2022-09-23T09:52:31.778Z,97152.88
2022-09-23T09:55:26.298Z,97150.41
2022-09-23T09:58:01.794Z,97153.69
2022-09-23T10:00:42.723Z,97150.09
2022-09-23T10:03:38.771Z,97139.75
2022-09-23T10:06:20.870Z,97141.31
2022-09-23T10:09:14.364Z,97136.56
2022-09-23T10:11:42.896Z,97141.31
2022-09-23T10:14:18.615Z,97140.13
2022-09-23T10:16:49.145Z,97143.75
2022-09-23T10:19:28.435Z,97145.31
2022-09-23T10:22:01.812Z,97136.16
2022-09-23T10:24:34.360Z,97137.00
2022-09-23T10:27:07.826Z,97141.34
2022-09-23T10:29:40.947Z,97137.38
2022-09-23T10:32:26.686Z,97135.00
2022-09-23T10:34:59.642Z,97133.38
2022-09-23T10:37:38.752Z,97130.59
2022-09-23T10:40:38.779Z,97128.16
2022-09-23T10:43:42.871Z,97129.22
2022-09-23T10:46:38.047Z,97124.09
2022-09-23T10:49:53.173Z,97117.44
2022-09-23T10:52:46.112Z,97111.84
2022-09-23T10:55:34.761Z,97118.03
2022-09-23T10:58:51.348Z,97104.19
2022-09-23T11:01:36.132Z,97102.47
2022-09-23T11:04:33.293Z,97102.94
2022-09-23T11:07:23.962Z,97106.25
2022-09-23T11:10:44.929Z,97098.25
2022-09-23T11:13:26.735Z,97098.38
2022-09-23T11:16:13.851Z,97084.47
2022-09-23T11:19:09.147Z,97087.66
2022-09-23T11:22:38.004Z,97087.63
2022-09-23T11:25:31.850Z,97078.91
2022-09-23T11:28:35.200Z,97075.97
2022-09-23T11:31:21.574Z,97071.91
2022-09-23T11:34:09.531Z,97067.25
2022-09-23T11:36:44.434Z,97070.53
2022-09-23T11:39:21.873Z,97057.81
2022-09-23T11:41:57.713Z,97057.41
2022-09-23T11:44:33.548Z,97057.31
2022-09-23T11:47:10.438Z,97053.81
2022-09-23T11:49:46.672Z,97058.59
2022-09-23T11:52:20.626Z,97047.91
2022-09-23T11:54:55.755Z,97043.03
2022-09-23T11:57:47.003Z,97043.91
2022-09-23T12:00:22.423Z,97039.13
2022-09-23T12:03:06.600Z,97039.09
2022-09-23T12:05:42.763Z,97034.28
2022-09-23T12:08:29.293Z,97029.50
2022-09-23T12:11:09.390Z,97029.31
2022-09-23T12:13:53.882Z,97026.34
2022-09-23T12:17:04.846Z,97016.81
2022-09-23T12:20:16.080Z,97016.22
2022-09-23T12:23:01.629Z,97017.69
2022-09-23T12:25:47.379Z,97007.47
2022-09-23T12:28:23.043Z,97010.97
2022-09-23T12:30:57.391Z,97010.09
2022-09-23T12:33:29.902Z,97004.88
2022-09-23T12:36:06.642Z,97013.63
2022-09-23T12:38:39.536Z,97004.13
2022-09-23T12:41:28.310Z,96997.72
2022-09-23T12:44:02.763Z,96996.53
2022-09-23T12:46:32.459Z,96995.00
2022-09-23T12:49:04.976Z,96999.38
2022-09-23T12:51:35.103Z,96999.78
2022-09-23T12:54:26.120Z,96988.97
2022-09-23T12:57:07.165Z,96984.25
2022-09-23T12:59:59.016Z,96986.63
2022-09-23T13:02:39.112Z,96983.41
2022-09-23T13:05:40.945Z,96982.69
2022-09-23T13:08:16.979Z,96975.13
2022-09-23T13:10:50.185Z,96973.13
2022-09-23T13:13:27.955Z,96969.97
2022-09-23T13:15:56.506Z,96967.16
2022-09-23T13:18:59.640Z,96967.56
2022-09-23T13:22:08.048Z,96955.97
2022-09-23T13:24:42.397Z,96956.78
2022-09-23T13:27:20.098Z,96956.84
2022-09-23T13:29:59.846Z,96948.09
2022-09-23T13:32:34.047Z,96948.69
2022-09-23T13:35:16.451Z,96944.47
2022-09-23T13:37:47.543Z,96943.81
2022-09-23T13:40:24.791Z,96941.03
2022-09-23T13:42:59.319Z,96942.25
2022-09-23T13:45:30.991Z,96939.88
2022-09-23T13:48:07.419Z,96933.75
2022-09-23T13:50:41.668Z,96928.13
2022-09-23T13:53:12.492Z,96933.69
2022-09-23T13:55:41.764Z,96926.50
2022-09-23T13:58:21.051Z,96930.84
2022-09-23T14:00:50.713Z,96930.97
2022-09-23T14:03:26.384Z,96924.22
2022-09-23T14:05:57.476Z,96925.03
2022-09-23T14:08:26.851Z,96924.25
2022-09-23T14:10:57.064Z,96915.09
2022-09-23T14:13:28.135Z,96921.41
2022-09-23T14:16:00.597Z,96923.09
2022-09-23T14:18:35.730Z,96913.47
2022-09-23T14:21:06.555Z,96916.19
2022-09-23T14:23:34.970Z,96913.72
2022-09-23T14:26:03.748Z,96911.00
2022-09-23T14:28:32.948Z,96906.41
2022-09-23T14:31:01.583Z,96903.59
2022-09-23T14:33:35.260Z,96900.22
2022-09-23T14:36:30.129Z,96905.56
2022-09-23T14:39:04.212Z,96894.06
2022-09-23T14:41:39.165Z,96899.31
2022-09-23T14:44:19.336Z,96893.63
2022-09-23T14:46:58.960Z,96893.81
2022-09-23T14:49:28.575Z,96883.63
2022-09-23T14:52:01.675Z,96890.47
2022-09-23T14:54:37.210Z,96878.97
2022-09-23T14:57:27.101Z,96885.31
2022-09-23T15:00:00.245Z,96876.59
2022-09-23T15:02:38.359Z,96876.59
2022-09-23T15:05:20.444Z,96875.81
2022-09-23T15:07:52.869Z,96869.03
2022-09-23T15:10:27.632Z,96871.56
2022-09-23T15:13:03.322Z,96865.41
2022-09-23T15:15:31.835Z,96862.53
2022-09-23T15:18:08.348Z,96858.13
2022-09-23T15:20:37.585Z,96858.44
2022-09-23T15:23:07.582Z,96855.94
2022-09-23T15:25:41.875Z,96866.50
2022-09-23T15:28:23.612Z,96863.59
2022-09-23T15:30:51.879Z,96860.56
2022-09-23T15:33:25.038Z,96862.94
2022-09-23T15:35:53.785Z,96859.69
2022-09-23T15:38:23.501Z,96870.88
2022-09-23T15:40:52.270Z,96869.44
2022-09-23T15:43:24.454Z,96867.59
2022-09-23T15:45:56.538Z,96860.81
2022-09-23T15:48:31.649Z,96866.81
2022-09-23T15:51:08.156Z,96864.81
2022-09-23T15:53:38.210Z,96858.09
2022-09-23T15:56:07.160Z,96859.38
2022-09-23T15:58:35.938Z,96853.66
2022-09-23T16:01:06.268Z,96848.50
2022-09-23T16:03:34.564Z,96847.00
2022-09-23T16:06:04.144Z,96845.28
2022-09-23T16:08:33.090Z,96844.66
2022-09-23T16:11:02.915Z,96843.31
2022-09-23T16:13:31.157Z,96838.47
2022-09-23T16:15:59.791Z,96840.22
2022-09-23T16:18:28.250Z,96843.34
2022-09-23T16:20:58.278Z,96842.22
2022-09-23T16:23:35.854Z,96845.06
2022-09-23T16:26:08.834Z,96841.00
2022-09-23T16:28:37.102Z,96841.53
2022-09-23T16:31:06.098Z,96836.00
2022-09-23T16:33:34.697Z,96834.03
2022-09-23T16:36:03.697Z,96836.81
2022-09-23T16:38:32.833Z,96841.09
2022-09-23T16:41:01.423Z,96840.09
2022-09-23T16:43:32.731Z,96840.84
2022-09-23T16:46:01.034Z,96839.25
2022-09-23T16:48:29.450Z,96828.03
2022-09-23T16:50:58.096Z,96842.00
2022-09-23T16:53:30.103Z,96832.41
2022-09-23T16:55:58.999Z,96831.41
2022-09-23T16:58:27.426Z,96829.69
2022-09-23T17:01:17.750Z,96835.06
2022-09-23T17:03:47.737Z,96832.09
2022-09-23T17:06:19.324Z,96836.97
2022-09-23T17:08:49.202Z,96835.47
2022-09-23T17:11:17.963Z,96831.78
2022-09-23T17:13:47.621Z,96834.38
2022-09-23T17:16:28.233Z,96824.09
2022-09-23T17:18:57.708Z,96823.59
2022-09-23T17:21:28.606Z,96826.41
2022-09-23T17:23:59.028Z,96825.25
2022-09-23T17:26:29.156Z,96824.97
2022-09-23T17:28:59.441Z,96819.94
2022-09-23T17:31:30.609Z,96831.84
2022-09-23T17:33:59.107Z,96820.06
2022-09-23T17:36:28.235Z,96828.84
2022-09-23T17:38:57.249Z,96825.56
2022-09-23T17:41:27.602Z,96835.06
2022-09-23T17:44:08.126Z,96831.06
2022-09-23T17:46:37.972Z,96836.16
2022-09-23T17:49:07.699Z,96828.69
2022-09-23T17:51:36.332Z,96828.31
2022-09-23T17:54:04.976Z,96828.94
2022-09-23T17:56:34.054Z,96831.72
2022-09-23T17:59:03.570Z,96831.63
2022-09-23T18:01:31.936Z,96840.66
2022-09-23T18:04:05.606Z,96840.25
2022-09-23T18:06:37.901Z,96839.63
2022-09-23T18:09:08.678Z,96838.97
2022-09-23T18:11:39.533Z,96837.19
2022-09-23T18:14:15.438Z,96832.72
2022-09-23T18:16:46.123Z,96834.13
2022-09-23T18:19:19.162Z,96830.53
2022-09-23T18:21:50.615Z,96834.75
2022-09-23T18:24:35.717Z,96822.31
2022-09-23T18:27:05.196Z,96820.09
2022-09-23T18:29:34.990Z,96830.06
2022-09-23T18:32:04.207Z,96830.72
2022-09-23T18:34:33.986Z,96824.84
2022-09-23T18:37:02.669Z,96828.31
2022-09-23T18:39:30.971Z,96825.75
2022-09-23T18:42:00.189Z,96826.44
2022-09-23T18:44:28.460Z,96813.94
2022-09-23T18:46:56.750Z,96817.00
2022-09-23T18:49:42.780Z,96811.03
2022-09-23T18:52:12.765Z,96817.09
2022-09-23T18:54:41.250Z,96818.38
2022-09-23T18:57:09.655Z,96824.31
2022-09-23T18:59:38.033Z,96826.41
2022-09-23T19:02:06.469Z,96831.38
2022-09-23T19:04:35.112Z,96830.06
2022-09-23T19:07:04.204Z,96825.84
2022-09-23T19:09:34.020Z,96827.19
2022-09-23T19:12:03.621Z,96830.25
2022-09-23T19:14:31.919Z,96826.53
2022-09-23T19:17:00.569Z,96828.34
2022-09-23T19:19:30.124Z,96831.91
2022-09-23T19:21:58.888Z,96828.41
2022-09-23T19:24:28.177Z,96832.09
2022-09-23T19:26:58.322Z,96833.53
2022-09-23T19:29:27.296Z,96832.13
2022-09-23T19:31:56.170Z,96833.06
2022-09-23T19:34:26.072Z,96834.50
2022-09-23T19:36:58.364Z,96838.03
2022-09-23T19:39:31.591Z,96825.16
2022-09-23T19:42:01.741Z,96835.91
2022-09-23T19:44:30.267Z,96831.09
2022-09-23T19:46:58.640Z,96826.88
2022-09-23T19:49:27.241Z,96828.81
2022-09-23T19:51:56.661Z,96830.97
2022-09-23T19:54:27.408Z,96823.22
2022-09-23T19:56:56.471Z,96827.09
2022-09-23T19:59:28.157Z,96823.22
2022-09-23T20:01:56.604Z,96825.19
2022-09-23T20:04:24.967Z,96818.38
2022-09-23T20:06:53.475Z,96820.16
2022-09-23T20:09:22.092Z,96821.81
2022-09-23T20:11:50.650Z,96819.13
2022-09-23T20:14:19.856Z,96815.41
2022-09-23T20:16:51.881Z,96815.88
2022-09-23T20:19:20.415Z,96817.47
2022-09-23T20:22:10.139Z,96813.16
2022-09-23T20:24:38.570Z,96816.69
2022-09-23T20:27:08.826Z,96811.88
2022-09-23T20:29:37.900Z,96815.94
2022-09-23T20:32:08.894Z,96813.25
2022-09-23T20:34:37.181Z,96813.06
2022-09-23T20:37:06.107Z,96801.81
2022-09-23T20:39:34.385Z,96795.41
2022-09-23T20:42:03.261Z,96797.31
2022-09-23T20:44:31.555Z,96791.88
2022-09-23T20:46:59.922Z,96789.97
2022-09-23T20:49:34.160Z,96792.34
2022-09-23T20:52:03.637Z,96791.56
2022-09-23T20:54:32.280Z,96782.56
2022-09-23T20:57:01.462Z,96786.06
2022-09-23T20:59:29.775Z,96786.09
2022-09-23T21:01:58.707Z,96786.84
2022-09-23T21:04:27.366Z,96785.25
2022-09-23T21:06:58.495Z,96775.91
2022-09-23T21:09:28.304Z,96779.28
2022-09-23T21:11:57.017Z,96783.16
2022-09-23T21:14:25.610Z,96782.69
2022-09-23T21:16:54.693Z,96787.22
2022-09-23T21:19:24.444Z,96782.72
2022-09-23T21:21:52.722Z,96782.72
2022-09-23T21:24:53.506Z,96778.69
2022-09-23T21:27:10.778Z,96792.19
2022-09-23T21:29:40.158Z,96787.84
2022-09-23T21:32:08.409Z,96796.22
2022-09-23T21:34:36.655Z,96796.88
2022-09-23T21:37:05.949Z,96792.69
2022-09-23T21:39:36.070Z,96794.75
2022-09-23T21:42:05.969Z,96789.97
2022-09-23T21:44:34.953Z,96797.69
2022-09-23T21:47:03.288Z,96787.56
2022-09-23T21:49:32.265Z,96788.84
2022-09-23T21:52:00.631Z,96787.53
2022-09-23T21:54:29.612Z,96776.94
2022-09-23T21:57:00.435Z,96770.03
2022-09-23T21:59:29.083Z,96764.41
2022-09-23T22:01:57.310Z,96755.56
2022-09-23T22:04:25.645Z,96762.78
2022-09-23T22:06:54.252Z,96758.44
2022-09-23T22:09:22.715Z,96752.16
2022-09-23T22:12:08.537Z,96763.09
2022-09-23T22:14:39.162Z,96754.84
2022-09-23T22:17:10.644Z,96755.78
2022-09-23T22:19:45.852Z,96753.84
2022-09-23T22:22:18.415Z,96748.31
2022-09-23T22:24:48.917Z,96750.72
2022-09-23T22:27:19.854Z,96754.56
2022-09-23T22:30:07.033Z,96752.16
2022-09-23T22:32:41.647Z,96755.22
2022-09-23T22:35:13.146Z,96755.09
2022-09-23T22:37:41.365Z,96753.66
2022-09-23T22:40:14.389Z,96745.00
2022-09-23T22:42:43.862Z,96752.41
2022-09-23T22:45:14.075Z,96750.81
2022-09-23T22:47:44.095Z,96756.28
2022-09-23T22:50:13.914Z,96755.31
2022-09-23T22:52:42.296Z,96764.16
2022-09-23T22:55:11.793Z,96760.94
2022-09-23T22:57:40.028Z,96762.91
2022-09-23T23:00:12.366Z,96752.50
2022-09-23T23:02:42.477Z,96758.31
2022-09-23T23:05:11.056Z,96747.22
2022-09-23T23:07:39.333Z,96747.91
2022-09-23T23:10:10.518Z,96745.81
2022-09-23T23:12:40.108Z,96753.34
2022-09-23T23:15:12.647Z,96748.69
2022-09-23T23:17:43.702Z,96746.75
2022-09-23T23:20:12.333Z,96742.41
2022-09-23T23:22:40.546Z,96748.81
2022-09-23T23:25:09.768Z,96744.97
2022-09-23T23:27:38.036Z,96738.72
2022-09-23T23:30:08.283Z,96738.75
2022-09-23T23:32:36.484Z,96740.03
2022-09-23T23:35:07.523Z,96744.88
2022-09-23T23:37:35.791Z,96741.63
2022-09-23T23:40:04.628Z,96743.41
2022-09-23T23:42:33.053Z,96751.72
2022-09-23T23:45:01.411Z,96756.72
2022-09-23T23:47:30.133Z,96749.81
2022-09-23T23:49:58.394Z,96742.94
2022-09-23T23:52:27.902Z,96750.13
2022-09-23T23:54:56.268Z,96738.59
2022-09-23T23:57:24.484Z,96736.66
2022-09-23T23:59:52.728Z,96733.47
